sensor_id;sensor_type;location;lat;lon;timestamp;temperature;humidity
8436;DHT22;4255;48.730;9.156;2023-04-25T00:02:02;10.10;99.90
8436;DHT22;4255;48.730;9.156;2023-04-25T00:04:29;10.10;99.90
8436;DHT22;4255;48.730;9.156;2023-04-25T00:06:55;10.10;99.90
8436;DHT22;4255;48.730;9.156;2023-04-25T00:09:21;10.20;99.90
8436;DHT22;4255;48.730;9.156;2023-04-25T00:11:47;10.10;99.90
8436;DHT22;4255;48.730;9.156;2023-04-25T00:14:14;10.10;99.90
8436;DHT22;4255;48.730;9.156;2023-04-25T00:16:39;10.20;99.90
8436;DHT22;4255;48.730;9.156;2023-04-25T00:19:06;10.10;99.90
8436;DHT22;4255;48.730;9.156;2023-04-25T00:21:33;10.10;99.90
8436;DHT22;4255;48.730;9.156;2023-04-25T00:23:59;10.10;99.90
8436;DHT22;4255;48.730;9.156;2023-04-25T00:26:25;10.10;99.90
8436;DHT22;4255;48.730;9.156;2023-04-25T00:28:51;10.10;99.90
8436;DHT22;4255;48.730;9.156;2023-04-25T00:31:16;10.10;99.90
8436;DHT22;4255;48.730;9.156;2023-04-25T00:33:42;10.10;99.90
8436;DHT22;4255;48.730;9.156;2023-04-25T00:36:07;10.10;99.90
8436;DHT22;4255;48.730;9.156;2023-04-25T00:38:33;10.20;99.90
8436;DHT22;4255;48.730;9.156;2023-04-25T00:40:59;10.20;99.90
8436;DHT22;4255;48.730;9.156;2023-04-25T00:43:26;10.20;99.90
8436;DHT22;4255;48.730;9.156;2023-04-25T00:45:52;10.20;99.90
8436;DHT22;4255;48.730;9.156;2023-04-25T00:48:18;10.10;99.90
8436;DHT22;4255;48.730;9.156;2023-04-25T00:50:53;10.10;99.90
8436;DHT22;4255;48.730;9.156;2023-04-25T00:53:23;10.10;99.90
8436;DHT22;4255;48.730;9.156;2023-04-25T00:55:49;10.00;99.90
8436;DHT22;4255;48.730;9.156;2023-04-25T00:58:17;10.00;99.90
8436;DHT22;4255;48.730;9.156;2023-04-25T01:00:44;10.00;99.90
8436;DHT22;4255;48.730;9.156;2023-04-25T01:03:11;10.10;99.90
8436;DHT22;4255;48.730;9.156;2023-04-25T01:05:37;10.10;99.90
8436;DHT22;4255;48.730;9.156;2023-04-25T01:08:02;10.10;99.90
8436;DHT22;4255;48.730;9.156;2023-04-25T01:10:28;10.10;99.90
8436;DHT22;4255;48.730;9.156;2023-04-25T01:12:53;10.10;99.90
8436;DHT22;4255;48.730;9.156;2023-04-25T01:15:20;10.20;99.90
8436;DHT22;4255;48.730;9.156;2023-04-25T01:17:45;10.20;99.90
8436;DHT22;4255;48.730;9.156;2023-04-25T01:20:12;10.20;99.90
8436;DHT22;4255;48.730;9.156;2023-04-25T01:22:39;10.10;99.90
8436;DHT22;4255;48.730;9.156;2023-04-25T01:25:05;9.90;99.90
8436;DHT22;4255;48.730;9.156;2023-04-25T01:27:32;9.80;99.90
8436;DHT22;4255;48.730;9.156;2023-04-25T01:29:58;9.70;99.90
8436;DHT22;4255;48.730;9.156;2023-04-25T01:32:25;9.60;99.90
8436;DHT22;4255;48.730;9.156;2023-04-25T01:34:51;9.50;99.90
8436;DHT22;4255;48.730;9.156;2023-04-25T01:37:17;9.50;99.90
8436;DHT22;4255;48.730;9.156;2023-04-25T01:39:43;9.40;99.90
8436;DHT22;4255;48.730;9.156;2023-04-25T01:42:09;9.40;99.90
8436;DHT22;4255;48.730;9.156;2023-04-25T01:44:35;9.10;99.90
8436;DHT22;4255;48.730;9.156;2023-04-25T01:47:00;9.10;99.90
8436;DHT22;4255;48.730;9.156;2023-04-25T01:49:26;9.00;99.90
8436;DHT22;4255;48.730;9.156;2023-04-25T01:51:52;8.90;99.90
8436;DHT22;4255;48.730;9.156;2023-04-25T01:54:18;9.00;99.90
8436;DHT22;4255;48.730;9.156;2023-04-25T01:56:50;9.00;99.90
8436;DHT22;4255;48.730;9.156;2023-04-25T01:59:15;8.90;99.90
8436;DHT22;4255;48.730;9.156;2023-04-25T02:01:41;8.80;99.90
8436;DHT22;4255;48.730;9.156;2023-04-25T02:04:06;8.90;99.90
8436;DHT22;4255;48.730;9.156;2023-04-25T02:06:32;8.90;99.90
8436;DHT22;4255;48.730;9.156;2023-04-25T02:08:57;8.90;99.90
8436;DHT22;4255;48.730;9.156;2023-04-25T02:11:23;8.80;99.90
8436;DHT22;4255;48.730;9.156;2023-04-25T02:13:49;8.70;99.90
8436;DHT22;4255;48.730;9.156;2023-04-25T02:16:15;8.70;99.90
8436;DHT22;4255;48.730;9.156;2023-04-25T02:18:40;8.70;99.90
8436;DHT22;4255;48.730;9.156;2023-04-25T02:21:06;8.70;99.90
8436;DHT22;4255;48.730;9.156;2023-04-25T02:23:31;8.70;99.90
8436;DHT22;4255;48.730;9.156;2023-04-25T02:25:57;8.80;99.90
8436;DHT22;4255;48.730;9.156;2023-04-25T02:28:24;8.80;99.90
8436;DHT22;4255;48.730;9.156;2023-04-25T02:30:51;8.90;99.90
8436;DHT22;4255;48.730;9.156;2023-04-25T02:33:17;8.80;99.90
8436;DHT22;4255;48.730;9.156;2023-04-25T02:35:42;8.80;99.90
8436;DHT22;4255;48.730;9.156;2023-04-25T02:38:08;8.90;99.90
8436;DHT22;4255;48.730;9.156;2023-04-25T02:40:34;8.90;99.90
8436;DHT22;4255;48.730;9.156;2023-04-25T02:42:59;9.00;99.90
8436;DHT22;4255;48.730;9.156;2023-04-25T02:45:25;9.10;99.90
8436;DHT22;4255;48.730;9.156;2023-04-25T02:47:50;9.10;99.90
8436;DHT22;4255;48.730;9.156;2023-04-25T02:50:16;9.00;99.90
8436;DHT22;4255;48.730;9.156;2023-04-25T02:52:43;8.90;99.90
8436;DHT22;4255;48.730;9.156;2023-04-25T02:55:08;8.90;99.90
8436;DHT22;4255;48.730;9.156;2023-04-25T02:57:34;9.00;99.90
8436;DHT22;4255;48.730;9.156;2023-04-25T03:00:00;9.00;99.90
8436;DHT22;4255;48.730;9.156;2023-04-25T03:02:25;9.00;99.90
8436;DHT22;4255;48.730;9.156;2023-04-25T03:04:51;9.00;99.90
8436;DHT22;4255;48.730;9.156;2023-04-25T03:07:17;8.90;99.90
8436;DHT22;4255;48.730;9.156;2023-04-25T03:09:42;8.90;99.90
8436;DHT22;4255;48.730;9.156;2023-04-25T03:12:08;8.80;99.90
8436;DHT22;4255;48.730;9.156;2023-04-25T03:14:33;8.70;99.90
8436;DHT22;4255;48.730;9.156;2023-04-25T03:16:59;8.60;99.90
8436;DHT22;4255;48.730;9.156;2023-04-25T03:19:24;8.60;99.90
8436;DHT22;4255;48.730;9.156;2023-04-25T03:21:50;8.60;99.90
8436;DHT22;4255;48.730;9.156;2023-04-25T03:24:15;8.70;99.90
8436;DHT22;4255;48.730;9.156;2023-04-25T03:26:41;8.70;99.90
8436;DHT22;4255;48.730;9.156;2023-04-25T03:29:07;8.80;99.90
8436;DHT22;4255;48.730;9.156;2023-04-25T03:31:32;9.00;99.90
8436;DHT22;4255;48.730;9.156;2023-04-25T03:33:58;9.10;99.90
8436;DHT22;4255;48.730;9.156;2023-04-25T03:36:23;8.90;99.90
8436;DHT22;4255;48.730;9.156;2023-04-25T03:38:49;8.90;99.90
8436;DHT22;4255;48.730;9.156;2023-04-25T03:41:15;8.90;99.90
8436;DHT22;4255;48.730;9.156;2023-04-25T03:43:41;9.10;99.90
8436;DHT22;4255;48.730;9.156;2023-04-25T03:46:06;9.10;99.90
8436;DHT22;4255;48.730;9.156;2023-04-25T03:48:32;9.20;99.90
8436;DHT22;4255;48.730;9.156;2023-04-25T03:50:57;9.00;99.90
8436;DHT22;4255;48.730;9.156;2023-04-25T03:53:23;8.70;99.90
8436;DHT22;4255;48.730;9.156;2023-04-25T03:55:48;8.70;99.90
8436;DHT22;4255;48.730;9.156;2023-04-25T03:58:14;8.80;99.90
8436;DHT22;4255;48.730;9.156;2023-04-25T04:00:40;8.80;99.90
8436;DHT22;4255;48.730;9.156;2023-04-25T04:03:05;8.80;99.90
8436;DHT22;4255;48.730;9.156;2023-04-25T04:05:31;8.70;99.90
8436;DHT22;4255;48.730;9.156;2023-04-25T04:07:58;8.70;99.90
8436;DHT22;4255;48.730;9.156;2023-04-25T04:10:23;8.80;99.90
8436;DHT22;4255;48.730;9.156;2023-04-25T04:12:49;8.80;99.90
8436;DHT22;4255;48.730;9.156;2023-04-25T04:15:14;8.80;99.90
8436;DHT22;4255;48.730;9.156;2023-04-25T04:17:40;8.80;99.90
8436;DHT22;4255;48.730;9.156;2023-04-25T04:20:07;8.90;99.90
8436;DHT22;4255;48.730;9.156;2023-04-25T04:22:33;9.00;99.90
8436;DHT22;4255;48.730;9.156;2023-04-25T04:24:59;9.10;99.90
8436;DHT22;4255;48.730;9.156;2023-04-25T04:27:24;9.10;99.90
8436;DHT22;4255;48.730;9.156;2023-04-25T04:29:50;9.00;99.90
8436;DHT22;4255;48.730;9.156;2023-04-25T04:32:17;9.00;99.90
8436;DHT22;4255;48.730;9.156;2023-04-25T04:34:43;8.90;99.90
8436;DHT22;4255;48.730;9.156;2023-04-25T04:37:09;8.80;99.90
8436;DHT22;4255;48.730;9.156;2023-04-25T04:39:35;8.70;99.90
8436;DHT22;4255;48.730;9.156;2023-04-25T04:42:01;8.60;99.90
8436;DHT22;4255;48.730;9.156;2023-04-25T04:44:29;8.50;99.90
8436;DHT22;4255;48.730;9.156;2023-04-25T04:46:54;8.60;99.90
8436;DHT22;4255;48.730;9.156;2023-04-25T04:49:21;8.60;99.90
8436;DHT22;4255;48.730;9.156;2023-04-25T04:51:46;8.50;99.90
8436;DHT22;4255;48.730;9.156;2023-04-25T04:54:12;8.70;99.90
8436;DHT22;4255;48.730;9.156;2023-04-25T04:56:38;8.70;99.90
8436;DHT22;4255;48.730;9.156;2023-04-25T04:59:04;8.90;99.90
8436;DHT22;4255;48.730;9.156;2023-04-25T05:01:30;9.10;99.90
8436;DHT22;4255;48.730;9.156;2023-04-25T05:03:56;9.20;99.90
8436;DHT22;4255;48.730;9.156;2023-04-25T05:06:26;9.00;99.90
8436;DHT22;4255;48.730;9.156;2023-04-25T05:08:52;8.90;99.90
8436;DHT22;4255;48.730;9.156;2023-04-25T05:11:18;8.90;99.90
8436;DHT22;4255;48.730;9.156;2023-04-25T05:13:44;8.90;99.90
8436;DHT22;4255;48.730;9.156;2023-04-25T05:16:11;9.00;99.90
8436;DHT22;4255;48.730;9.156;2023-04-25T05:18:37;9.20;99.90
8436;DHT22;4255;48.730;9.156;2023-04-25T05:21:02;9.40;99.90
8436;DHT22;4255;48.730;9.156;2023-04-25T05:23:28;9.30;99.90
8436;DHT22;4255;48.730;9.156;2023-04-25T05:25:55;9.40;99.90
8436;DHT22;4255;48.730;9.156;2023-04-25T05:28:21;9.50;99.90
8436;DHT22;4255;48.730;9.156;2023-04-25T05:30:47;9.70;99.90
8436;DHT22;4255;48.730;9.156;2023-04-25T05:33:13;9.90;99.90
8436;DHT22;4255;48.730;9.156;2023-04-25T05:35:38;10.00;99.90
8436;DHT22;4255;48.730;9.156;2023-04-25T05:38:04;10.20;99.90
8436;DHT22;4255;48.730;9.156;2023-04-25T05:40:29;10.20;99.90
8436;DHT22;4255;48.730;9.156;2023-04-25T05:42:55;10.30;99.90
8436;DHT22;4255;48.730;9.156;2023-04-25T05:45:20;10.40;99.90
8436;DHT22;4255;48.730;9.156;2023-04-25T05:47:46;10.40;99.90
8436;DHT22;4255;48.730;9.156;2023-04-25T05:50:11;10.40;99.90
8436;DHT22;4255;48.730;9.156;2023-04-25T05:52:37;10.30;99.90
8436;DHT22;4255;48.730;9.156;2023-04-25T05:55:04;10.40;99.90
8436;DHT22;4255;48.730;9.156;2023-04-25T05:57:30;10.30;99.90
8436;DHT22;4255;48.730;9.156;2023-04-25T05:59:56;10.30;99.90
8436;DHT22;4255;48.730;9.156;2023-04-25T06:02:22;10.20;97.40
8436;DHT22;4255;48.730;9.156;2023-04-25T06:04:50;9.90;99.90
8436;DHT22;4255;48.730;9.156;2023-04-25T06:07:16;9.70;99.90
8436;DHT22;4255;48.730;9.156;2023-04-25T06:09:43;9.50;99.90
8436;DHT22;4255;48.730;9.156;2023-04-25T06:12:09;9.40;99.90
8436;DHT22;4255;48.730;9.156;2023-04-25T06:14:35;9.40;99.90
8436;DHT22;4255;48.730;9.156;2023-04-25T06:17:00;9.30;99.90
8436;DHT22;4255;48.730;9.156;2023-04-25T06:19:32;9.20;99.90
8436;DHT22;4255;48.730;9.156;2023-04-25T06:21:58;9.40;99.90
8436;DHT22;4255;48.730;9.156;2023-04-25T06:24:23;9.50;99.90
8436;DHT22;4255;48.730;9.156;2023-04-25T06:26:49;9.60;99.90
8436;DHT22;4255;48.730;9.156;2023-04-25T06:29:15;9.70;99.90
8436;DHT22;4255;48.730;9.156;2023-04-25T06:31:40;9.50;99.90
8436;DHT22;4255;48.730;9.156;2023-04-25T06:34:06;9.50;99.90
8436;DHT22;4255;48.730;9.156;2023-04-25T06:36:31;9.60;99.90
8436;DHT22;4255;48.730;9.156;2023-04-25T06:38:57;9.40;99.90
8436;DHT22;4255;48.730;9.156;2023-04-25T06:41:23;9.50;99.90
8436;DHT22;4255;48.730;9.156;2023-04-25T06:43:48;9.30;99.90
8436;DHT22;4255;48.730;9.156;2023-04-25T06:46:14;9.30;99.90
8436;DHT22;4255;48.730;9.156;2023-04-25T06:48:39;9.20;99.90
8436;DHT22;4255;48.730;9.156;2023-04-25T06:51:05;9.20;99.90
8436;DHT22;4255;48.730;9.156;2023-04-25T06:53:30;9.10;99.90
8436;DHT22;4255;48.730;9.156;2023-04-25T06:55:56;9.00;99.90
8436;DHT22;4255;48.730;9.156;2023-04-25T06:58:21;9.00;99.90
8436;DHT22;4255;48.730;9.156;2023-04-25T07:00:47;8.90;99.90
8436;DHT22;4255;48.730;9.156;2023-04-25T07:03:13;9.00;99.90
8436;DHT22;4255;48.730;9.156;2023-04-25T07:05:39;8.90;99.90
8436;DHT22;4255;48.730;9.156;2023-04-25T07:08:04;8.90;99.90
8436;DHT22;4255;48.730;9.156;2023-04-25T07:10:30;9.10;99.90
8436;DHT22;4255;48.730;9.156;2023-04-25T07:12:56;8.70;99.90
8436;DHT22;4255;48.730;9.156;2023-04-25T07:15:21;8.90;99.90
8436;DHT22;4255;48.730;9.156;2023-04-25T07:17:47;8.90;99.90
8436;DHT22;4255;48.730;9.156;2023-04-25T07:20:13;9.00;99.90
8436;DHT22;4255;48.730;9.156;2023-04-25T07:22:38;9.00;99.90
8436;DHT22;4255;48.730;9.156;2023-04-25T07:25:04;9.00;99.90
8436;DHT22;4255;48.730;9.156;2023-04-25T07:27:30;9.10;99.90
8436;DHT22;4255;48.730;9.156;2023-04-25T07:29:56;9.20;99.90
8436;DHT22;4255;48.730;9.156;2023-04-25T07:32:23;9.30;99.90
8436;DHT22;4255;48.730;9.156;2023-04-25T07:34:48;9.40;99.90
8436;DHT22;4255;48.730;9.156;2023-04-25T07:37:14;9.20;99.90
8436;DHT22;4255;48.730;9.156;2023-04-25T07:39:40;8.80;99.90
8436;DHT22;4255;48.730;9.156;2023-04-25T07:42:06;8.70;99.90
8436;DHT22;4255;48.730;9.156;2023-04-25T07:44:34;8.80;99.90
8436;DHT22;4255;48.730;9.156;2023-04-25T07:47:09;8.90;99.90
8436;DHT22;4255;48.730;9.156;2023-04-25T07:49:36;9.00;99.90
8436;DHT22;4255;48.730;9.156;2023-04-25T07:52:04;9.00;99.90
8436;DHT22;4255;48.730;9.156;2023-04-25T07:54:30;8.90;99.90
8436;DHT22;4255;48.730;9.156;2023-04-25T07:56:56;8.80;99.90
8436;DHT22;4255;48.730;9.156;2023-04-25T07:59:22;9.00;99.90
8436;DHT22;4255;48.730;9.156;2023-04-25T08:01:48;9.20;99.90
8436;DHT22;4255;48.730;9.156;2023-04-25T08:04:13;9.30;99.90
8436;DHT22;4255;48.730;9.156;2023-04-25T08:06:39;9.20;99.90
8436;DHT22;4255;48.730;9.156;2023-04-25T08:09:05;9.20;99.90
8436;DHT22;4255;48.730;9.156;2023-04-25T08:11:31;9.40;99.90
8436;DHT22;4255;48.730;9.156;2023-04-25T08:13:57;9.40;99.90
8436;DHT22;4255;48.730;9.156;2023-04-25T08:16:22;9.30;99.90
8436;DHT22;4255;48.730;9.156;2023-04-25T08:18:49;9.20;99.90
8436;DHT22;4255;48.730;9.156;2023-04-25T08:21:15;9.10;99.90
8436;DHT22;4255;48.730;9.156;2023-04-25T08:23:41;8.90;99.90
8436;DHT22;4255;48.730;9.156;2023-04-25T08:26:06;9.10;99.90
8436;DHT22;4255;48.730;9.156;2023-04-25T08:28:32;9.10;99.90
8436;DHT22;4255;48.730;9.156;2023-04-25T08:30:58;9.10;99.90
8436;DHT22;4255;48.730;9.156;2023-04-25T08:33:23;9.00;99.90
8436;DHT22;4255;48.730;9.156;2023-04-25T08:35:49;9.10;99.90
8436;DHT22;4255;48.730;9.156;2023-04-25T08:38:15;9.10;99.90
8436;DHT22;4255;48.730;9.156;2023-04-25T08:40:41;9.10;99.90
8436;DHT22;4255;48.730;9.156;2023-04-25T08:43:08;9.30;99.90
8436;DHT22;4255;48.730;9.156;2023-04-25T08:45:39;9.30;99.90
8436;DHT22;4255;48.730;9.156;2023-04-25T08:48:10;9.30;99.90
8436;DHT22;4255;48.730;9.156;2023-04-25T08:50:40;9.30;99.90
8436;DHT22;4255;48.730;9.156;2023-04-25T08:53:09;9.10;99.90
8436;DHT22;4255;48.730;9.156;2023-04-25T08:55:41;9.20;99.90
8436;DHT22;4255;48.730;9.156;2023-04-25T08:58:07;9.30;99.90
8436;DHT22;4255;48.730;9.156;2023-04-25T09:00:35;9.40;99.90
8436;DHT22;4255;48.730;9.156;2023-04-25T09:03:01;9.30;99.90
8436;DHT22;4255;48.730;9.156;2023-04-25T09:05:28;9.30;99.90
8436;DHT22;4255;48.730;9.156;2023-04-25T09:07:54;9.10;99.90
8436;DHT22;4255;48.730;9.156;2023-04-25T09:10:19;8.80;99.90
8436;DHT22;4255;48.730;9.156;2023-04-25T09:13:02;8.80;99.90
8436;DHT22;4255;48.730;9.156;2023-04-25T09:15:29;8.70;99.90
8436;DHT22;4255;48.730;9.156;2023-04-25T09:17:56;8.60;99.90
8436;DHT22;4255;48.730;9.156;2023-04-25T09:20:21;8.60;99.90
8436;DHT22;4255;48.730;9.156;2023-04-25T09:22:47;8.40;99.90
8436;DHT22;4255;48.730;9.156;2023-04-25T09:25:13;8.50;99.90
8436;DHT22;4255;48.730;9.156;2023-04-25T09:27:52;8.40;99.90
8436;DHT22;4255;48.730;9.156;2023-04-25T09:30:27;8.50;99.90
8436;DHT22;4255;48.730;9.156;2023-04-25T09:32:56;8.50;99.90
8436;DHT22;4255;48.730;9.156;2023-04-25T09:35:25;8.40;99.90
8436;DHT22;4255;48.730;9.156;2023-04-25T09:37:51;8.40;99.90
8436;DHT22;4255;48.730;9.156;2023-04-25T09:40:18;8.40;99.90
8436;DHT22;4255;48.730;9.156;2023-04-25T09:42:43;8.50;99.90
8436;DHT22;4255;48.730;9.156;2023-04-25T09:45:12;8.50;99.90
8436;DHT22;4255;48.730;9.156;2023-04-25T09:47:38;8.30;99.90
8436;DHT22;4255;48.730;9.156;2023-04-25T09:50:17;8.10;99.90
8436;DHT22;4255;48.730;9.156;2023-04-25T09:52:44;8.30;99.90
8436;DHT22;4255;48.730;9.156;2023-04-25T09:55:11;8.10;99.90
8436;DHT22;4255;48.730;9.156;2023-04-25T09:57:37;8.00;99.90
8436;DHT22;4255;48.730;9.156;2023-04-25T10:00:05;7.90;99.90
8436;DHT22;4255;48.730;9.156;2023-04-25T10:02:37;8.00;99.90
8436;DHT22;4255;48.730;9.156;2023-04-25T10:05:05;7.90;99.90
8436;DHT22;4255;48.730;9.156;2023-04-25T10:07:33;7.60;99.90
8436;DHT22;4255;48.730;9.156;2023-04-25T10:10:04;7.50;99.90
8436;DHT22;4255;48.730;9.156;2023-04-25T10:12:31;7.60;99.90
8436;DHT22;4255;48.730;9.156;2023-04-25T10:14:58;7.70;99.90
8436;DHT22;4255;48.730;9.156;2023-04-25T10:17:24;7.80;99.90
8436;DHT22;4255;48.730;9.156;2023-04-25T10:19:52;7.90;99.90
8436;DHT22;4255;48.730;9.156;2023-04-25T10:25:01;8.00;99.90
8436;DHT22;4255;48.730;9.156;2023-04-25T10:27:29;8.10;99.90
8436;DHT22;4255;48.730;9.156;2023-04-25T10:30:09;8.20;99.90
8436;DHT22;4255;48.730;9.156;2023-04-25T10:32:38;8.10;99.90
8436;DHT22;4255;48.730;9.156;2023-04-25T10:35:19;8.10;99.90
8436;DHT22;4255;48.730;9.156;2023-04-25T10:38:09;8.10;99.90
8436;DHT22;4255;48.730;9.156;2023-04-25T10:40:36;7.90;99.90
8436;DHT22;4255;48.730;9.156;2023-04-25T10:43:33;7.90;99.90
8436;DHT22;4255;48.730;9.156;2023-04-25T10:46:02;8.00;99.90
8436;DHT22;4255;48.730;9.156;2023-04-25T10:48:31;7.90;99.90
8436;DHT22;4255;48.730;9.156;2023-04-25T10:51:10;8.10;99.90
8436;DHT22;4255;48.730;9.156;2023-04-25T10:53:36;7.90;99.90
8436;DHT22;4255;48.730;9.156;2023-04-25T10:56:21;7.80;99.90
8436;DHT22;4255;48.730;9.156;2023-04-25T10:58:48;7.70;99.90
8436;DHT22;4255;48.730;9.156;2023-04-25T11:01:15;7.70;99.90
8436;DHT22;4255;48.730;9.156;2023-04-25T11:03:44;7.70;99.90
8436;DHT22;4255;48.730;9.156;2023-04-25T11:06:27;7.60;99.90
8436;DHT22;4255;48.730;9.156;2023-04-25T11:08:55;7.90;99.90
8436;DHT22;4255;48.730;9.156;2023-04-25T11:11:20;7.80;99.90
8436;DHT22;4255;48.730;9.156;2023-04-25T11:13:49;7.70;99.90
8436;DHT22;4255;48.730;9.156;2023-04-25T11:16:16;7.70;99.90
8436;DHT22;4255;48.730;9.156;2023-04-25T11:18:42;7.80;99.90
8436;DHT22;4255;48.730;9.156;2023-04-25T11:21:08;7.70;99.90
8436;DHT22;4255;48.730;9.156;2023-04-25T11:23:34;7.60;99.90
8436;DHT22;4255;48.730;9.156;2023-04-25T11:26:00;7.80;99.90
8436;DHT22;4255;48.730;9.156;2023-04-25T11:28:26;7.60;99.90
8436;DHT22;4255;48.730;9.156;2023-04-25T11:30:52;7.70;99.90
8436;DHT22;4255;48.730;9.156;2023-04-25T11:33:23;7.70;99.90
8436;DHT22;4255;48.730;9.156;2023-04-25T11:35:49;7.60;99.90
8436;DHT22;4255;48.730;9.156;2023-04-25T11:38:14;7.70;99.90
8436;DHT22;4255;48.730;9.156;2023-04-25T11:40:40;7.80;99.90
8436;DHT22;4255;48.730;9.156;2023-04-25T11:43:06;8.00;99.90
8436;DHT22;4255;48.730;9.156;2023-04-25T11:45:32;8.20;99.90
8436;DHT22;4255;48.730;9.156;2023-04-25T11:47:58;8.30;99.90
8436;DHT22;4255;48.730;9.156;2023-04-25T11:50:23;8.30;99.90
8436;DHT22;4255;48.730;9.156;2023-04-25T11:52:49;8.50;99.90
8436;DHT22;4255;48.730;9.156;2023-04-25T11:55:17;8.80;99.90
8436;DHT22;4255;48.730;9.156;2023-04-25T11:57:44;8.90;99.90
8436;DHT22;4255;48.730;9.156;2023-04-25T12:00:12;9.00;99.90
8436;DHT22;4255;48.730;9.156;2023-04-25T12:02:46;9.10;99.90
8436;DHT22;4255;48.730;9.156;2023-04-25T12:05:14;9.10;99.90
8436;DHT22;4255;48.730;9.156;2023-04-25T12:07:45;8.90;99.90
8436;DHT22;4255;48.730;9.156;2023-04-25T12:10:12;8.80;99.90
8436;DHT22;4255;48.730;9.156;2023-04-25T12:12:41;8.70;99.90
8436;DHT22;4255;48.730;9.156;2023-04-25T12:17:40;8.70;99.90
8436;DHT22;4255;48.730;9.156;2023-04-25T12:20:14;8.90;99.90
8436;DHT22;4255;48.730;9.156;2023-04-25T12:22:42;9.00;99.90
8436;DHT22;4255;48.730;9.156;2023-04-25T12:25:36;9.20;99.90
8436;DHT22;4255;48.730;9.156;2023-04-25T12:28:14;9.10;99.90
8436;DHT22;4255;48.730;9.156;2023-04-25T12:33:18;9.10;99.90
8436;DHT22;4255;48.730;9.156;2023-04-25T12:35:44;9.10;99.90
8436;DHT22;4255;48.730;9.156;2023-04-25T12:38:10;9.20;99.90
8436;DHT22;4255;48.730;9.156;2023-04-25T12:40:36;9.20;99.90
8436;DHT22;4255;48.730;9.156;2023-04-25T12:43:01;9.30;99.90
8436;DHT22;4255;48.730;9.156;2023-04-25T12:45:27;9.40;99.90
8436;DHT22;4255;48.730;9.156;2023-04-25T12:47:52;9.60;99.90
8436;DHT22;4255;48.730;9.156;2023-04-25T12:50:18;10.00;99.90
8436;DHT22;4255;48.730;9.156;2023-04-25T12:52:43;10.40;99.90
8436;DHT22;4255;48.730;9.156;2023-04-25T12:55:09;10.30;99.90
8436;DHT22;4255;48.730;9.156;2023-04-25T12:57:35;10.50;99.90
8436;DHT22;4255;48.730;9.156;2023-04-25T13:00:00;10.40;93.40
8436;DHT22;4255;48.730;9.156;2023-04-25T13:02:28;10.60;99.90
8436;DHT22;4255;48.730;9.156;2023-04-25T13:04:54;11.00;99.90
8436;DHT22;4255;48.730;9.156;2023-04-25T13:07:19;11.40;99.90
8436;DHT22;4255;48.730;9.156;2023-04-25T13:09:45;11.60;73.80
8436;DHT22;4255;48.730;9.156;2023-04-25T13:12:10;11.80;18.50
8436;DHT22;4255;48.730;9.156;2023-04-25T13:14:36;12.00;9.10
8436;DHT22;4255;48.730;9.156;2023-04-25T13:17:02;12.30;46.50
8436;DHT22;4255;48.730;9.156;2023-04-25T13:19:28;12.50;2.10
8436;DHT22;4255;48.730;9.156;2023-04-25T13:21:54;12.60;1.00
8436;DHT22;4255;48.730;9.156;2023-04-25T13:24:19;12.20;9.00
8436;DHT22;4255;48.730;9.156;2023-04-25T13:26:45;12.10;9.00
8436;DHT22;4255;48.730;9.156;2023-04-25T13:29:11;11.90;25.90
8436;DHT22;4255;48.730;9.156;2023-04-25T13:31:36;11.80;98.30
8436;DHT22;4255;48.730;9.156;2023-04-25T13:34:02;11.70;32.00
8436;DHT22;4255;48.730;9.156;2023-04-25T13:36:28;11.80;20.90
8436;DHT22;4255;48.730;9.156;2023-04-25T13:38:54;11.70;35.50
8436;DHT22;4255;48.730;9.156;2023-04-25T13:41:20;12.10;59.70
8436;DHT22;4255;48.730;9.156;2023-04-25T13:43:46;11.90;14.00
8436;DHT22;4255;48.730;9.156;2023-04-25T13:46:13;12.20;18.30
8436;DHT22;4255;48.730;9.156;2023-04-25T13:48:40;12.20;66.30
8436;DHT22;4255;48.730;9.156;2023-04-25T13:51:11;11.90;51.10
8436;DHT22;4255;48.730;9.156;2023-04-25T13:53:37;11.40;32.50
8436;DHT22;4255;48.730;9.156;2023-04-25T13:56:03;11.50;82.10
8436;DHT22;4255;48.730;9.156;2023-04-25T13:58:30;11.40;99.90
8436;DHT22;4255;48.730;9.156;2023-04-25T14:00:55;11.40;99.90
8436;DHT22;4255;48.730;9.156;2023-04-25T14:03:21;11.60;99.90
8436;DHT22;4255;48.730;9.156;2023-04-25T14:05:47;11.50;63.70
8436;DHT22;4255;48.730;9.156;2023-04-25T14:08:12;11.40;85.40
8436;DHT22;4255;48.730;9.156;2023-04-25T14:10:38;11.60;93.90
8436;DHT22;4255;48.730;9.156;2023-04-25T14:13:04;11.40;88.00
8436;DHT22;4255;48.730;9.156;2023-04-25T14:15:31;11.00;90.30
8436;DHT22;4255;48.730;9.156;2023-04-25T14:17:57;11.00;99.90
8436;DHT22;4255;48.730;9.156;2023-04-25T14:20:22;11.10;74.30
8436;DHT22;4255;48.730;9.156;2023-04-25T14:22:49;11.50;91.30
8436;DHT22;4255;48.730;9.156;2023-04-25T14:25:15;11.70;71.20
8436;DHT22;4255;48.730;9.156;2023-04-25T14:27:40;11.90;99.90
8436;DHT22;4255;48.730;9.156;2023-04-25T14:30:06;12.20;20.90
8436;DHT22;4255;48.730;9.156;2023-04-25T14:32:34;12.40;28.70
8436;DHT22;4255;48.730;9.156;2023-04-25T14:35:00;12.20;1.00
8436;DHT22;4255;48.730;9.156;2023-04-25T14:37:25;11.90;1.00
8436;DHT22;4255;48.730;9.156;2023-04-25T14:39:51;11.90;1.00
8436;DHT22;4255;48.730;9.156;2023-04-25T14:42:16;12.10;5.50
8436;DHT22;4255;48.730;9.156;2023-04-25T14:44:42;12.20;1.00
8436;DHT22;4255;48.730;9.156;2023-04-25T14:47:08;12.20;1.00
8436;DHT22;4255;48.730;9.156;2023-04-25T14:49:33;12.30;1.00
8436;DHT22;4255;48.730;9.156;2023-04-25T14:51:59;12.40;1.00
8436;DHT22;4255;48.730;9.156;2023-04-25T14:54:25;12.00;1.00
8436;DHT22;4255;48.730;9.156;2023-04-25T14:56:50;11.70;1.00
8436;DHT22;4255;48.730;9.156;2023-04-25T14:59:16;11.60;1.00
8436;DHT22;4255;48.730;9.156;2023-04-25T15:01:42;11.60;1.00
8436;DHT22;4255;48.730;9.156;2023-04-25T15:04:08;11.80;1.00
8436;DHT22;4255;48.730;9.156;2023-04-25T15:06:33;11.70;1.00
8436;DHT22;4255;48.730;9.156;2023-04-25T15:08:59;11.90;1.00
8436;DHT22;4255;48.730;9.156;2023-04-25T15:11:25;12.30;1.00
8436;DHT22;4255;48.730;9.156;2023-04-25T15:13:50;12.60;1.00
8436;DHT22;4255;48.730;9.156;2023-04-25T15:16:16;12.80;1.00
8436;DHT22;4255;48.730;9.156;2023-04-25T15:18:41;12.90;1.00
8436;DHT22;4255;48.730;9.156;2023-04-25T15:21:07;12.90;1.00
8436;DHT22;4255;48.730;9.156;2023-04-25T15:23:32;13.00;1.00
8436;DHT22;4255;48.730;9.156;2023-04-25T15:25:58;13.00;1.00
8436;DHT22;4255;48.730;9.156;2023-04-25T15:28:23;13.00;1.00
8436;DHT22;4255;48.730;9.156;2023-04-25T15:30:49;13.00;99.90
8436;DHT22;4255;48.730;9.156;2023-04-25T15:33:15;12.70;99.90
8436;DHT22;4255;48.730;9.156;2023-04-25T15:35:41;12.50;1.00
8436;DHT22;4255;48.730;9.156;2023-04-25T15:38:07;12.60;1.00
8436;DHT22;4255;48.730;9.156;2023-04-25T15:40:33;13.10;1.00
8436;DHT22;4255;48.730;9.156;2023-04-25T15:42:59;12.90;99.90
8436;DHT22;4255;48.730;9.156;2023-04-25T15:45:25;12.70;1.00
8436;DHT22;4255;48.730;9.156;2023-04-25T15:47:52;12.90;1.00
8436;DHT22;4255;48.730;9.156;2023-04-25T15:50:18;12.90;1.00
8436;DHT22;4255;48.730;9.156;2023-04-25T15:52:44;12.90;1.00
8436;DHT22;4255;48.730;9.156;2023-04-25T15:55:10;12.50;1.00
8436;DHT22;4255;48.730;9.156;2023-04-25T15:57:37;12.20;1.00
8436;DHT22;4255;48.730;9.156;2023-04-25T16:00:05;11.90;1.00
8436;DHT22;4255;48.730;9.156;2023-04-25T16:02:42;11.70;1.00
8436;DHT22;4255;48.730;9.156;2023-04-25T16:05:09;11.50;1.00
8436;DHT22;4255;48.730;9.156;2023-04-25T16:07:36;11.30;1.00
8436;DHT22;4255;48.730;9.156;2023-04-25T16:10:01;11.30;1.00
8436;DHT22;4255;48.730;9.156;2023-04-25T16:12:28;11.40;1.00
8436;DHT22;4255;48.730;9.156;2023-04-25T16:14:55;11.30;1.00
8436;DHT22;4255;48.730;9.156;2023-04-25T16:17:23;11.40;1.00
8436;DHT22;4255;48.730;9.156;2023-04-25T16:19:48;11.50;1.00